Welcome to our Virtual Airline
Sign-in:

Flight MFC37961

  • Submitted By: Karl Klotz
  • Departure Airport: Port Williams SPB (KPR)
  • Arrival Airport: Kulik Lake (LKK)
  • Aircraft: RYAN B5 (NRB5MM)
  • Flight Time: 01.12.09
  • Date Submitted: 19/05/13
  • Route: STOP-OVER AT OPTIONAL: (MCNEIL RIVER CAMP (MCN) (WATER) (THIS SPOT IS UN-MARKED BUT IT IS IN MCNEIL COVE)
  • Status: Accepted
Flight Details
Gross Revenue:
(3 load / $ 95.00 per unit
$ 285.00
Fuel Cost:
(24.0404 fuel used @ 5.1 / unit)
$ 122.61

Additional Log Information:

View Log

FS[17:05] ----- Flight Opened -----
FS[17:05] Cigar Box - 1.1.4.0
FS[17:05] FS: Prepar3D V4
FS[17:05] FSUIPC: v5,15
FS[17:05] Flight Number: MFC37961
FS[17:05] FS Aircraft: C185F SKYWAGON AMPHIBIAN
FS[17:05] FS Model: C185
FS[17:05] FS Type: Cessna
FS[17:05] Departure: KPR
FS[17:05] Arrival: LKK
FS[17:05] Flight Level: 6500
FS[17:05] Flight Type: H
FS[17:05] Passengers: 3
FS[17:05] FOB: 108 lbs
FS[17:05] Gate: n/a
FS[17:05] NOTE: Parking Brake Ignored
FS[17:05] Crash Detection: Disabled
FS[17:05] Engines: 1 Piston
FS[17:05] NOTE: Boarding has started
FS[17:05] FS: Paused
FS[17:05] Autopilot: Engaged
FS[17:05] AGL: 3 ft
FS[17:05] AMSL: 3 ft
FS[17:05] Landing Gear: Retracted
FS[17:05] Engine 1: Started
FS[17:05] Flaps: Position 4
FS[17:05] Light Data: Navigation ON
FS[17:05] Light Data: Beacon ON
FS[17:05] Light Data: Strobe lights ON
FS[17:05] Main Door Closed
FS[17:05] FS: Unpaused
FS[17:05] COM1: 121.05
FS[17:05] COM2: 127.80
FS[17:05] Transponder: 1200
FS[17:05] NAV1: 115.90
FS[17:05] NAV2: 110.60
FS[17:05] ADF1: 396.0
FS[17:05] ADF2: 240.0
FS[17:05] Navigation Mode: NAV
FS[17:05] NOTE: Taxi started
FS[17:05] Flaps: Position 3
FS[17:06] Flaps: Position 2
FS[17:06] Flaps: Position 1
FS[17:06] Flaps: Position 0
FS[17:06] NOTE: ----- TAKE OFF -----
FS[17:06] GS: 71 knots
FS[17:06] TAS: 73 knots
FS[17:06] IAS: 73 knots
FS[17:06] VS: 6 fpm
FS[17:06] FOB: 108 lbs
FS[17:06] Heading: 309°
FS[17:06] Pitch: 4°
FS[17:06] Bank: 0°
FS[17:06] Aircraft Weight: 2553,05 lbs
FS[17:06] Nearest Airport: KPR
FS[17:06] Distance: 1,15 miles
FS[17:06] Runway: ???
FS[17:06] Ground Surface: Water
FS[17:06] Ground Condition: Normal
FS[17:06] NOTE: Weather Report
FS[17:06] Wind Heading: 345°
FS[17:06] Wind Speed: 0 knots
FS[17:06] OAT: 14° C
FS[17:06] TAT: 15° C
FS[17:06] Precipitation: None
FS[17:06] Dew Point: 4° C
FS[17:06] Visibility: 62 miles
FS[17:06] METAR: KPRB 131453Z AUTO 00000KT 5SM BR OVC002 11/10 A3004 RMK AO2 SLP169 T01060100 51007KPRC 131453Z 00000KT 10SM CLR 16/07 A3012 RMK AO2 SLP143 T01560072 51012KPRG 131455Z AUTO 33010G14KT 10SM SCT024 SCT050 13/08 A2996 RMK AO2 T01300078KPRN 131456Z AUTO 01011KT 10SM CLR 22/13 A2993 RMK AO2 SLP128 T02220128 53011KPRO 131515Z AUTO 00000KT 10SM CLR 13/09 A3001 RMK AO2 T01300091KPRS 131515Z AUTO 09004KT 10SM SCT050 SCT070 22/13 A3000 RMK AO2 LTG DSNT N T02150125KPRX 131456Z AUTO 24007KT 10SM CLR 22/17 A3000 RMK AO2 SLP170 T02220167 51014
FS[17:06] NOTE: Climb started
FS[17:06] View Mode: Virtual Cockpit
FS[17:06] Autopilot: Disengaged
FS[17:06] AGL: 232 ft
FS[17:06] AMSL: 232 ft
FS[17:06] Autopilot: Engaged
FS[17:06] AGL: 255 ft
FS[17:06] AMSL: 255 ft
FS[17:50] Autopilot: Disengaged
FS[17:50] AGL: 990 ft
FS[17:50] AMSL: 990 ft
FS[17:50] Flaps: Position 1
FS[17:50] GS: 79 knots
FS[17:50] TAS: 80 knots
FS[17:50] IAS: 79 knots
FS[17:50] VS: -278 fpm
FS[17:51] Flaps: Position 2
FS[17:51] GS: 73 knots
FS[17:51] TAS: 74 knots
FS[17:51] IAS: 74 knots
FS[17:51] VS: -479 fpm
FS[17:51] Flaps: Position 3
FS[17:51] GS: 66 knots
FS[17:51] TAS: 66 knots
FS[17:51] IAS: 66 knots
FS[17:51] VS: -543 fpm
FS[17:52] Flaps: Position 4
FS[17:52] GS: 62 knots
FS[17:52] TAS: 62 knots
FS[17:52] IAS: 62 knots
FS[17:52] VS: -373 fpm
FS[17:53] NOTE: ----- LANDED -----
FS[17:53] Landing Rate: -47,67 fpm
FS[17:53] GS: 52 knots
FS[17:53] TAS: 54 knots
FS[17:53] IAS: 54 knots
FS[17:53] VS: -47 fpm
FS[17:53] FOB: 74 lbs
FS[17:53] Heading: 245°
FS[17:53] Pitch: 2°
FS[17:53] Bank: 0°
FS[17:53] Aircraft Weight: 2519,82 lbs
FS[17:53] Nearest Airport: MCN
FS[17:53] Distance: 1,12 miles
FS[17:53] Runway: ???
FS[17:53] Ground Surface: Water
FS[17:53] Ground Condition: Normal
FS[17:53] NOTE: Weather Report
FS[17:53] Wind Heading: 345°
FS[17:53] Wind Speed: 0 knots
FS[17:53] OAT: 14° C
FS[17:53] TAT: 15° C
FS[17:53] Precipitation: None
FS[17:53] Dew Point: 4° C
FS[17:53] Visibility: 62 miles
FS[17:53] METAR: LKKB 131500Z 33010KT 300V010 CAVOK 13/M02 Q1032 NOSIGLKKU 131400Z 04021KT CAVOK 11/03 Q1029LKKV 131500Z 33010KT 300V030 CAVOK 10/M04 Q1032
FS[17:53] View Mode: Virtual Cockpit
FS[17:53] Flaps: Position 3
FS[17:53] Flaps: Position 2
FS[17:53] Flaps: Position 1
FS[17:53] Flaps: Position 0
FS[17:53] NOTE: Taxi started
FS[17:54] Autopilot: Engaged
FS[17:54] AGL: 196 ft
FS[17:54] AMSL: 196 ft
FS[17:54] View Mode: Virtual Cockpit
FS[18:13] Autopilot: Disengaged
FS[18:13] AGL: 643 ft
FS[18:13] AMSL: 1299 ft
FS[18:13] Flaps: Position 1
FS[18:13] GS: 85 knots
FS[18:13] TAS: 87 knots
FS[18:13] IAS: 85 knots
FS[18:13] VS: 61 fpm
FS[18:15] Flaps: Position 2
FS[18:15] GS: 79 knots
FS[18:15] TAS: 80 knots
FS[18:15] IAS: 79 knots
FS[18:15] VS: -199 fpm
FS[18:15] Flaps: Position 3
FS[18:15] GS: 71 knots
FS[18:15] TAS: 73 knots
FS[18:15] IAS: 72 knots
FS[18:15] VS: -246 fpm
FS[18:16] Flaps: Position 4
FS[18:16] GS: 62 knots
FS[18:16] TAS: 63 knots
FS[18:16] IAS: 62 knots
FS[18:16] VS: -199 fpm
FS[18:16] Landing Gear: Extended
FS[18:16] GS: 56 knots
FS[18:16] TAS: 58 knots
FS[18:16] IAS: 57 knots
FS[18:16] VS: -312 fpm
FS[18:16] AGL: 13 ft
FS[18:16] AMSL: 803 ft
FS[18:17] NOTE: ----- LANDED -----
FS[18:17] Landing Rate: -26,14 fpm
FS[18:17] GS: 52 knots
FS[18:17] TAS: 53 knots
FS[18:17] IAS: 53 knots
FS[18:17] VS: -26 fpm
FS[18:17] FOB: 56 lbs
FS[18:17] Heading: 246°
FS[18:17] Pitch: 3°
FS[18:17] Bank: 0°
FS[18:17] Aircraft Weight: 2501,52 lbs
FS[18:17] Nearest Airport: PAKL
FS[18:17] Distance: 0,22 miles
FS[18:17] Runway: 24 - LKK
FS[18:17] Ground Surface: Gravel
FS[18:17] Ground Condition: Normal
FS[18:17] NOTE: Weather Report
FS[18:17] Wind Heading: 345°
FS[18:17] Wind Speed: 0 knots
FS[18:17] OAT: 13° C
FS[18:17] TAT: 13° C
FS[18:17] Precipitation: None
FS[18:17] Dew Point: 3° C
FS[18:17] Visibility: 62 miles
FS[18:17] METAR: LKKB 131500Z 33010KT 300V010 CAVOK 13/M02 Q1032 NOSIGLKKU 131400Z 04021KT CAVOK 11/03 Q1029LKKV 131500Z 33010KT 300V030 CAVOK 10/M04 Q1032
FS[18:17] View Mode: Virtual Cockpit
FS[18:17] Flaps: Position 3
FS[18:17] Flaps: Position 2
FS[18:17] Flaps: Position 1
FS[18:17] Flaps: Position 0
FS[18:17] Gate: 2 - LKK
FS[18:17] NOTE: Flight Completed
FS[18:17] FS Aircraft: C185F SKYWAGON AMPHIBIAN
FS[18:17] FS Model: C185
FS[18:17] FS Type: Cessna
FS[18:17] FOB: 56 lbs
FS[18:17] Fuel Used: 53 lbs
FS[18:17] Flight Time: 01:12:09
FS[18:17] Flight Time (Dawn): 00:00:00
FS[18:17] Flight Time (Day): 01:12:09
FS[18:17] Flight Time (Dusk): 00:00:00
FS[18:17] Flight Time (Night): 00:00:00
FS[18:17] Total Landings: 2
FS[18:17] MaxSim Rate: 0x
FS[18:17] Cigar Box - 1.1.4.0
FS[18:17] ----- Flight Closed -----

Route Map